Capitol Logistics 320


KRFD
Chicago/Rockford International Airport
Rockford, Illinois, US
KMCI
Kansas City International Airport
Kansas City, Missouri, US

Activity Log

Date Flight Route Aircraft Duration
01/14/2020 CPX320 BDF J26 IRK BQS6 B763 1h 18m
12/07/2019 CPX320 PLL MZV J232 IRK BQS4 B763 1h 16m
07/18/2019 CPX320 PLL MZV J232 IRK BQS4 B763 1h 12m

Route Details

Aircraft Information
Primary: Boeing 767-300BDSF
Backup: Boeing 757-200SF
Route Data
Distance: 309nm
Sched. Duration: 1h 14m
Avg. Duration: 1h 15m (+1m)
Times Flown: 3
Recm'd Route: PLL MZV J232 IRK BQS4
Planned Altitude: 32,000ft
Origin Wx: KRFD 272354Z 23003KT 10SM SCT110 02/M04 A3018 RMK AO2 SLP225 T00221044 10039 20022 56015
Dest. Wx: KMCI 272353Z 00000KT 10SM OVC055 01/M03 A3020 RMK AO2 SLP235 T00111028 10017 20000 56013 $
Notes:

Financial History
Total Freight: 217,656lbs
Average Load: 72,552lbs/flt
Fuel Used: 37,050lbs
Avg. Fuel Used: 12,350lbs/flt
Fuel Expense: $27,046
Avg. Fuel Expense: $9,015
Avg. Fuel Cost: $0.73/lbs
Total Gross Income: $289,243
Pilot Pay: $457
Total Expenses: $31,394
Total Revenue: $229,867
Average Revenue: $96,414.40